sensor_id;sensor_type;location;lat;lon;timestamp;P1;durP1;ratioP1;P2;durP2;ratioP2
31724;SDS011;18306;40.960;14.836;2023-09-19T00:01:09;7.82;;;4.00;;
31724;SDS011;18306;40.960;14.836;2023-09-19T00:03:38;13.60;;;4.93;;
31724;SDS011;18306;40.960;14.836;2023-09-19T00:06:10;14.07;;;4.05;;
31724;SDS011;18306;40.960;14.836;2023-09-19T00:08:39;11.35;;;4.93;;
31724;SDS011;18306;40.960;14.836;2023-09-19T00:11:06;9.80;;;4.85;;
31724;SDS011;18306;40.960;14.836;2023-09-19T00:13:34;14.52;;;4.85;;
31724;SDS011;18306;40.960;14.836;2023-09-19T00:16:08;12.35;;;4.65;;
31724;SDS011;18306;40.960;14.836;2023-09-19T00:18:40;14.07;;;4.60;;
31724;SDS011;18306;40.960;14.836;2023-09-19T00:21:08;11.25;;;5.38;;
31724;SDS011;18306;40.960;14.836;2023-09-19T00:23:36;10.38;;;4.78;;
31724;SDS011;18306;40.960;14.836;2023-09-19T00:26:04;8.70;;;5.20;;
31724;SDS011;18306;40.960;14.836;2023-09-19T00:28:32;16.77;;;6.20;;
31724;SDS011;18306;40.960;14.836;2023-09-19T00:31:03;12.68;;;4.63;;
31724;SDS011;18306;40.960;14.836;2023-09-19T00:33:31;9.52;;;4.30;;
31724;SDS011;18306;40.960;14.836;2023-09-19T00:35:58;12.20;;;5.60;;
31724;SDS011;18306;40.960;14.836;2023-09-19T00:38:28;7.38;;;4.80;;
31724;SDS011;18306;40.960;14.836;2023-09-19T00:40:55;11.23;;;4.75;;
31724;SDS011;18306;40.960;14.836;2023-09-19T00:43:26;9.27;;;5.85;;
31724;SDS011;18306;40.960;14.836;2023-09-19T00:45:54;7.60;;;4.57;;
31724;SDS011;18306;40.960;14.836;2023-09-19T00:48:22;10.43;;;5.60;;
31724;SDS011;18306;40.960;14.836;2023-09-19T00:50:51;12.30;;;6.38;;
31724;SDS011;18306;40.960;14.836;2023-09-19T00:53:21;12.35;;;5.70;;
31724;SDS011;18306;40.960;14.836;2023-09-19T00:55:50;9.73;;;5.63;;
31724;SDS011;18306;40.960;14.836;2023-09-19T00:58:21;14.45;;;6.50;;
31724;SDS011;18306;40.960;14.836;2023-09-19T01:00:51;11.25;;;5.70;;
31724;SDS011;18306;40.960;14.836;2023-09-19T01:03:19;17.13;;;5.63;;
31724;SDS011;18306;40.960;14.836;2023-09-19T01:05:48;12.32;;;5.65;;
31724;SDS011;18306;40.960;14.836;2023-09-19T01:08:16;13.23;;;5.70;;
31724;SDS011;18306;40.960;14.836;2023-09-19T01:10:56;11.13;;;5.57;;
31724;SDS011;18306;40.960;14.836;2023-09-19T01:22:41;10.10;;;5.13;;
31724;SDS011;18306;40.960;14.836;2023-09-19T01:28:31;13.00;;;6.25;;
31724;SDS011;18306;40.960;14.836;2023-09-19T01:31:06;8.45;;;4.50;;
31724;SDS011;18306;40.960;14.836;2023-09-19T01:36:30;10.02;;;5.55;;
31724;SDS011;18306;40.960;14.836;2023-09-19T01:39:04;12.48;;;5.45;;
31724;SDS011;18306;40.960;14.836;2023-09-19T01:50:17;13.88;;;6.40;;
31724;SDS011;18306;40.960;14.836;2023-09-19T01:53:03;8.75;;;5.43;;
31724;SDS011;18306;40.960;14.836;2023-09-19T01:55:37;10.43;;;5.55;;
31724;SDS011;18306;40.960;14.836;2023-09-19T01:58:14;14.13;;;5.75;;
31724;SDS011;18306;40.960;14.836;2023-09-19T02:01:10;14.60;;;5.57;;
31724;SDS011;18306;40.960;14.836;2023-09-19T02:03:40;13.15;;;6.15;;
31724;SDS011;18306;40.960;14.836;2023-09-19T02:06:17;8.88;;;5.13;;
31724;SDS011;18306;40.960;14.836;2023-09-19T02:08:45;9.85;;;5.28;;
31724;SDS011;18306;40.960;14.836;2023-09-19T02:11:13;19.80;;;6.43;;
31724;SDS011;18306;40.960;14.836;2023-09-19T02:13:40;11.15;;;6.30;;
31724;SDS011;18306;40.960;14.836;2023-09-19T02:16:08;10.75;;;6.13;;
31724;SDS011;18306;40.960;14.836;2023-09-19T02:18:37;9.93;;;5.40;;
31724;SDS011;18306;40.960;14.836;2023-09-19T02:21:05;9.18;;;5.72;;
31724;SDS011;18306;40.960;14.836;2023-09-19T02:23:38;8.50;;;5.57;;
31724;SDS011;18306;40.960;14.836;2023-09-19T02:26:06;11.13;;;6.50;;
31724;SDS011;18306;40.960;14.836;2023-09-19T02:28:33;7.53;;;5.03;;
31724;SDS011;18306;40.960;14.836;2023-09-19T02:31:02;11.20;;;5.82;;
31724;SDS011;18306;40.960;14.836;2023-09-19T02:33:31;9.45;;;5.28;;
31724;SDS011;18306;40.960;14.836;2023-09-19T02:35:59;16.75;;;5.85;;
31724;SDS011;18306;40.960;14.836;2023-09-19T02:38:27;13.82;;;6.40;;
31724;SDS011;18306;40.960;14.836;2023-09-19T02:40:55;6.63;;;5.60;;
31724;SDS011;18306;40.960;14.836;2023-09-19T02:43:25;12.05;;;5.43;;
31724;SDS011;18306;40.960;14.836;2023-09-19T02:45:55;11.25;;;6.47;;
31724;SDS011;18306;40.960;14.836;2023-09-19T02:48:23;10.63;;;5.85;;
31724;SDS011;18306;40.960;14.836;2023-09-19T02:50:51;7.60;;;5.72;;
31724;SDS011;18306;40.960;14.836;2023-09-19T02:53:19;12.90;;;6.60;;
31724;SDS011;18306;40.960;14.836;2023-09-19T02:55:46;10.18;;;5.80;;
31724;SDS011;18306;40.960;14.836;2023-09-19T02:58:14;15.73;;;5.40;;
31724;SDS011;18306;40.960;14.836;2023-09-19T03:00:42;14.02;;;4.65;;
31724;SDS011;18306;40.960;14.836;2023-09-19T03:03:14;9.18;;;5.00;;
31724;SDS011;18306;40.960;14.836;2023-09-19T03:05:42;18.08;;;6.18;;
31724;SDS011;18306;40.960;14.836;2023-09-19T03:08:14;17.25;;;5.75;;
31724;SDS011;18306;40.960;14.836;2023-09-19T03:10:41;5.75;;;4.45;;
31724;SDS011;18306;40.960;14.836;2023-09-19T03:13:09;16.83;;;5.90;;
31724;SDS011;18306;40.960;14.836;2023-09-19T03:15:36;10.55;;;5.72;;
31724;SDS011;18306;40.960;14.836;2023-09-19T03:18:07;8.13;;;4.68;;
31724;SDS011;18306;40.960;14.836;2023-09-19T03:20:34;16.17;;;5.72;;
31724;SDS011;18306;40.960;14.836;2023-09-19T03:23:02;8.45;;;5.63;;
31724;SDS011;18306;40.960;14.836;2023-09-19T03:25:33;14.30;;;6.30;;
31724;SDS011;18306;40.960;14.836;2023-09-19T03:28:02;11.68;;;5.15;;
31724;SDS011;18306;40.960;14.836;2023-09-19T03:30:33;17.33;;;6.68;;
31724;SDS011;18306;40.960;14.836;2023-09-19T03:33:03;11.93;;;5.22;;
31724;SDS011;18306;40.960;14.836;2023-09-19T03:35:31;15.88;;;5.80;;
31724;SDS011;18306;40.960;14.836;2023-09-19T03:37:58;9.63;;;5.03;;
31724;SDS011;18306;40.960;14.836;2023-09-19T03:40:26;8.38;;;5.05;;
31724;SDS011;18306;40.960;14.836;2023-09-19T03:42:54;14.10;;;5.05;;
31724;SDS011;18306;40.960;14.836;2023-09-19T03:45:21;7.85;;;4.80;;
31724;SDS011;18306;40.960;14.836;2023-09-19T03:47:52;6.35;;;4.50;;
31724;SDS011;18306;40.960;14.836;2023-09-19T03:50:21;13.68;;;6.15;;
31724;SDS011;18306;40.960;14.836;2023-09-19T03:52:49;13.57;;;6.57;;
31724;SDS011;18306;40.960;14.836;2023-09-19T03:55:17;15.88;;;6.07;;
31724;SDS011;18306;40.960;14.836;2023-09-19T03:57:47;18.13;;;6.40;;
31724;SDS011;18306;40.960;14.836;2023-09-19T04:00:16;15.35;;;5.50;;
31724;SDS011;18306;40.960;14.836;2023-09-19T04:02:47;12.32;;;4.43;;
31724;SDS011;18306;40.960;14.836;2023-09-19T04:05:15;8.70;;;4.15;;
31724;SDS011;18306;40.960;14.836;2023-09-19T04:07:42;15.80;;;3.88;;
31724;SDS011;18306;40.960;14.836;2023-09-19T04:10:09;10.43;;;5.72;;
31724;SDS011;18306;40.960;14.836;2023-09-19T04:12:37;8.68;;;5.18;;
31724;SDS011;18306;40.960;14.836;2023-09-19T04:15:05;9.30;;;4.82;;
31724;SDS011;18306;40.960;14.836;2023-09-19T04:17:33;7.68;;;3.47;;
31724;SDS011;18306;40.960;14.836;2023-09-19T04:20:00;8.55;;;4.60;;
31724;SDS011;18306;40.960;14.836;2023-09-19T04:22:27;6.70;;;3.97;;
31724;SDS011;18306;40.960;14.836;2023-09-19T04:24:55;9.65;;;3.92;;
31724;SDS011;18306;40.960;14.836;2023-09-19T04:27:22;7.93;;;4.40;;
31724;SDS011;18306;40.960;14.836;2023-09-19T04:29:49;8.70;;;4.45;;
31724;SDS011;18306;40.960;14.836;2023-09-19T04:32:17;7.70;;;4.22;;
31724;SDS011;18306;40.960;14.836;2023-09-19T04:34:44;10.10;;;4.18;;
31724;SDS011;18306;40.960;14.836;2023-09-19T04:37:11;16.10;;;4.70;;
31724;SDS011;18306;40.960;14.836;2023-09-19T04:39:41;13.27;;;5.65;;
31724;SDS011;18306;40.960;14.836;2023-09-19T04:42:09;14.82;;;5.68;;
31724;SDS011;18306;40.960;14.836;2023-09-19T04:44:40;17.58;;;7.07;;
31724;SDS011;18306;40.960;14.836;2023-09-19T04:47:09;12.65;;;5.47;;
31724;SDS011;18306;40.960;14.836;2023-09-19T04:49:38;10.80;;;5.78;;
31724;SDS011;18306;40.960;14.836;2023-09-19T04:52:06;11.95;;;5.05;;
31724;SDS011;18306;40.960;14.836;2023-09-19T04:54:33;9.50;;;4.70;;
31724;SDS011;18306;40.960;14.836;2023-09-19T04:57:00;9.07;;;4.32;;
31724;SDS011;18306;40.960;14.836;2023-09-19T04:59:27;18.42;;;5.00;;
31724;SDS011;18306;40.960;14.836;2023-09-19T05:01:58;7.53;;;4.35;;
31724;SDS011;18306;40.960;14.836;2023-09-19T05:04:25;8.60;;;4.18;;
31724;SDS011;18306;40.960;14.836;2023-09-19T05:06:52;11.50;;;5.07;;
31724;SDS011;18306;40.960;14.836;2023-09-19T05:09:19;12.60;;;5.00;;
31724;SDS011;18306;40.960;14.836;2023-09-19T05:11:46;10.05;;;4.22;;
31724;SDS011;18306;40.960;14.836;2023-09-19T05:14:20;6.95;;;3.97;;
31724;SDS011;18306;40.960;14.836;2023-09-19T05:16:49;8.75;;;3.90;;
31724;SDS011;18306;40.960;14.836;2023-09-19T05:19:16;8.13;;;4.20;;
31724;SDS011;18306;40.960;14.836;2023-09-19T05:21:43;12.88;;;4.65;;
31724;SDS011;18306;40.960;14.836;2023-09-19T05:24:10;17.13;;;5.00;;
31724;SDS011;18306;40.960;14.836;2023-09-19T05:26:38;16.33;;;4.90;;
31724;SDS011;18306;40.960;14.836;2023-09-19T05:29:06;13.02;;;4.88;;
31724;SDS011;18306;40.960;14.836;2023-09-19T05:31:35;16.52;;;5.30;;
31724;SDS011;18306;40.960;14.836;2023-09-19T05:34:07;13.65;;;4.93;;
31724;SDS011;18306;40.960;14.836;2023-09-19T05:36:34;8.25;;;4.32;;
31724;SDS011;18306;40.960;14.836;2023-09-19T05:39:04;10.88;;;4.28;;
31724;SDS011;18306;40.960;14.836;2023-09-19T05:41:35;9.32;;;5.15;;
31724;SDS011;18306;40.960;14.836;2023-09-19T05:44:03;9.88;;;4.65;;
31724;SDS011;18306;40.960;14.836;2023-09-19T05:46:30;8.77;;;4.63;;
31724;SDS011;18306;40.960;14.836;2023-09-19T05:48:58;6.45;;;4.30;;
31724;SDS011;18306;40.960;14.836;2023-09-19T05:51:25;8.75;;;4.70;;
31724;SDS011;18306;40.960;14.836;2023-09-19T05:53:54;13.48;;;5.05;;
31724;SDS011;18306;40.960;14.836;2023-09-19T05:56:28;13.15;;;5.60;;
31724;SDS011;18306;40.960;14.836;2023-09-19T05:58:55;11.40;;;4.78;;
31724;SDS011;18306;40.960;14.836;2023-09-19T06:01:23;8.13;;;4.88;;
31724;SDS011;18306;40.960;14.836;2023-09-19T06:03:50;20.02;;;6.25;;
31724;SDS011;18306;40.960;14.836;2023-09-19T06:06:19;7.75;;;4.30;;
31724;SDS011;18306;40.960;14.836;2023-09-19T06:08:46;11.25;;;5.47;;
31724;SDS011;18306;40.960;14.836;2023-09-19T06:11:13;9.10;;;3.97;;
31724;SDS011;18306;40.960;14.836;2023-09-19T06:13:43;11.20;;;4.78;;
31724;SDS011;18306;40.960;14.836;2023-09-19T06:16:13;8.38;;;4.32;;
31724;SDS011;18306;40.960;14.836;2023-09-19T06:18:42;9.95;;;4.68;;
31724;SDS011;18306;40.960;14.836;2023-09-19T06:21:10;9.32;;;4.07;;
31724;SDS011;18306;40.960;14.836;2023-09-19T06:23:40;8.85;;;4.03;;
31724;SDS011;18306;40.960;14.836;2023-09-19T06:26:13;11.82;;;4.90;;
31724;SDS011;18306;40.960;14.836;2023-09-19T06:28:40;5.57;;;4.38;;
31724;SDS011;18306;40.960;14.836;2023-09-19T06:31:09;12.52;;;4.22;;
31724;SDS011;18306;40.960;14.836;2023-09-19T06:33:36;7.90;;;4.30;;
31724;SDS011;18306;40.960;14.836;2023-09-19T06:36:06;9.55;;;4.70;;
31724;SDS011;18306;40.960;14.836;2023-09-19T06:38:34;8.00;;;3.72;;
31724;SDS011;18306;40.960;14.836;2023-09-19T06:41:02;10.52;;;4.53;;
31724;SDS011;18306;40.960;14.836;2023-09-19T06:43:34;9.75;;;4.50;;
31724;SDS011;18306;40.960;14.836;2023-09-19T06:46:01;8.32;;;4.45;;
31724;SDS011;18306;40.960;14.836;2023-09-19T06:48:28;9.93;;;3.92;;
31724;SDS011;18306;40.960;14.836;2023-09-19T06:50:56;6.00;;;3.33;;
31724;SDS011;18306;40.960;14.836;2023-09-19T06:53:24;5.65;;;3.05;;
31724;SDS011;18306;40.960;14.836;2023-09-19T06:55:52;7.13;;;3.10;;
31724;SDS011;18306;40.960;14.836;2023-09-19T06:58:19;11.73;;;3.75;;
31724;SDS011;18306;40.960;14.836;2023-09-19T07:00:46;3.22;;;2.20;;
31724;SDS011;18306;40.960;14.836;2023-09-19T07:03:14;5.15;;;2.92;;
31724;SDS011;18306;40.960;14.836;2023-09-19T07:05:42;5.82;;;3.40;;
31724;SDS011;18306;40.960;14.836;2023-09-19T07:08:10;11.90;;;3.30;;
31724;SDS011;18306;40.960;14.836;2023-09-19T07:10:39;12.60;;;3.78;;
31724;SDS011;18306;40.960;14.836;2023-09-19T07:13:07;6.78;;;3.55;;
31724;SDS011;18306;40.960;14.836;2023-09-19T07:15:38;6.57;;;3.40;;
31724;SDS011;18306;40.960;14.836;2023-09-19T07:18:07;7.65;;;3.40;;
31724;SDS011;18306;40.960;14.836;2023-09-19T07:20:37;6.97;;;3.17;;
31724;SDS011;18306;40.960;14.836;2023-09-19T07:23:04;5.60;;;2.83;;
31724;SDS011;18306;40.960;14.836;2023-09-19T07:25:32;11.32;;;3.42;;
31724;SDS011;18306;40.960;14.836;2023-09-19T07:27:59;3.78;;;2.95;;
31724;SDS011;18306;40.960;14.836;2023-09-19T07:30:27;4.18;;;2.97;;
31724;SDS011;18306;40.960;14.836;2023-09-19T07:32:55;6.53;;;3.25;;
31724;SDS011;18306;40.960;14.836;2023-09-19T07:35:22;4.80;;;2.90;;
31724;SDS011;18306;40.960;14.836;2023-09-19T07:37:49;7.25;;;3.45;;
31724;SDS011;18306;40.960;14.836;2023-09-19T07:40:18;10.43;;;3.53;;
31724;SDS011;18306;40.960;14.836;2023-09-19T07:42:46;9.25;;;4.10;;
31724;SDS011;18306;40.960;14.836;2023-09-19T07:45:13;6.93;;;2.95;;
31724;SDS011;18306;40.960;14.836;2023-09-19T07:47:43;7.25;;;3.83;;
31724;SDS011;18306;40.960;14.836;2023-09-19T07:50:11;5.93;;;3.55;;
31724;SDS011;18306;40.960;14.836;2023-09-19T07:52:39;9.23;;;3.20;;
31724;SDS011;18306;40.960;14.836;2023-09-19T07:55:06;11.70;;;4.30;;
31724;SDS011;18306;40.960;14.836;2023-09-19T07:57:35;5.43;;;3.38;;
31724;SDS011;18306;40.960;14.836;2023-09-19T08:00:03;4.18;;;2.88;;
31724;SDS011;18306;40.960;14.836;2023-09-19T08:02:37;5.03;;;3.60;;
31724;SDS011;18306;40.960;14.836;2023-09-19T08:05:08;5.72;;;3.45;;
31724;SDS011;18306;40.960;14.836;2023-09-19T08:07:36;19.77;;;3.65;;
31724;SDS011;18306;40.960;14.836;2023-09-19T08:10:04;17.60;;;3.00;;
31724;SDS011;18306;40.960;14.836;2023-09-19T08:12:42;10.20;;;3.53;;
31724;SDS011;18306;40.960;14.836;2023-09-19T08:15:16;7.75;;;3.47;;
31724;SDS011;18306;40.960;14.836;2023-09-19T08:17:48;14.98;;;4.63;;
31724;SDS011;18306;40.960;14.836;2023-09-19T08:20:16;11.38;;;3.28;;
31724;SDS011;18306;40.960;14.836;2023-09-19T08:22:48;9.75;;;3.63;;
31724;SDS011;18306;40.960;14.836;2023-09-19T08:25:18;5.82;;;2.50;;
31724;SDS011;18306;40.960;14.836;2023-09-19T08:27:45;8.65;;;2.95;;
31724;SDS011;18306;40.960;14.836;2023-09-19T08:30:19;9.73;;;2.92;;
31724;SDS011;18306;40.960;14.836;2023-09-19T08:32:50;11.35;;;2.75;;
31724;SDS011;18306;40.960;14.836;2023-09-19T08:35:17;7.38;;;3.33;;
31724;SDS011;18306;40.960;14.836;2023-09-19T08:37:45;8.73;;;2.78;;
31724;SDS011;18306;40.960;14.836;2023-09-19T08:40:12;4.35;;;2.80;;
31724;SDS011;18306;40.960;14.836;2023-09-19T08:42:50;9.95;;;3.05;;
31724;SDS011;18306;40.960;14.836;2023-09-19T08:45:17;9.40;;;3.00;;
31724;SDS011;18306;40.960;14.836;2023-09-19T08:47:46;11.43;;;3.58;;
31724;SDS011;18306;40.960;14.836;2023-09-19T08:50:27;8.18;;;3.58;;
31724;SDS011;18306;40.960;14.836;2023-09-19T08:52:56;15.52;;;3.67;;
31724;SDS011;18306;40.960;14.836;2023-09-19T08:55:37;13.90;;;4.38;;
31724;SDS011;18306;40.960;14.836;2023-09-19T08:58:08;7.85;;;3.22;;
31724;SDS011;18306;40.960;14.836;2023-09-19T09:00:37;19.95;;;3.75;;
31724;SDS011;18306;40.960;14.836;2023-09-19T09:03:09;5.78;;;3.03;;
31724;SDS011;18306;40.960;14.836;2023-09-19T09:05:36;8.50;;;3.72;;
31724;SDS011;18306;40.960;14.836;2023-09-19T09:08:09;8.85;;;2.92;;
31724;SDS011;18306;40.960;14.836;2023-09-19T09:10:38;7.18;;;3.67;;
31724;SDS011;18306;40.960;14.836;2023-09-19T09:13:07;13.82;;;3.83;;
31724;SDS011;18306;40.960;14.836;2023-09-19T09:15:36;8.43;;;3.55;;
31724;SDS011;18306;40.960;14.836;2023-09-19T09:18:07;15.65;;;4.43;;
31724;SDS011;18306;40.960;14.836;2023-09-19T09:20:34;12.80;;;3.90;;
31724;SDS011;18306;40.960;14.836;2023-09-19T09:23:02;12.00;;;4.20;;
31724;SDS011;18306;40.960;14.836;2023-09-19T09:25:46;14.02;;;4.63;;
31724;SDS011;18306;40.960;14.836;2023-09-19T09:28:20;12.80;;;5.00;;
31724;SDS011;18306;40.960;14.836;2023-09-19T09:30:48;14.85;;;5.18;;
31724;SDS011;18306;40.960;14.836;2023-09-19T09:33:19;20.67;;;5.18;;
31724;SDS011;18306;40.960;14.836;2023-09-19T09:38:21;16.58;;;4.60;;
31724;SDS011;18306;40.960;14.836;2023-09-19T09:40:59;10.75;;;4.40;;
31724;SDS011;18306;40.960;14.836;2023-09-19T09:43:33;16.25;;;5.05;;
31724;SDS011;18306;40.960;14.836;2023-09-19T09:46:10;18.25;;;5.45;;
31724;SDS011;18306;40.960;14.836;2023-09-19T09:49:00;11.55;;;5.20;;
31724;SDS011;18306;40.960;14.836;2023-09-19T09:52:05;13.98;;;4.88;;
31724;SDS011;18306;40.960;14.836;2023-09-19T09:54:58;16.08;;;5.45;;
31724;SDS011;18306;40.960;14.836;2023-09-19T09:57:27;15.80;;;5.75;;
31724;SDS011;18306;40.960;14.836;2023-09-19T09:59:56;10.77;;;4.60;;
31724;SDS011;18306;40.960;14.836;2023-09-19T10:02:29;14.70;;;5.88;;
31724;SDS011;18306;40.960;14.836;2023-09-19T10:05:16;20.63;;;5.80;;
31724;SDS011;18306;40.960;14.836;2023-09-19T10:07:47;11.60;;;5.05;;
31724;SDS011;18306;40.960;14.836;2023-09-19T10:10:35;20.58;;;5.40;;
31724;SDS011;18306;40.960;14.836;2023-09-19T10:13:10;19.40;;;4.88;;
31724;SDS011;18306;40.960;14.836;2023-09-19T10:15:42;13.18;;;5.18;;
31724;SDS011;18306;40.960;14.836;2023-09-19T10:18:20;15.32;;;4.28;;
31724;SDS011;18306;40.960;14.836;2023-09-19T10:20:49;16.50;;;5.53;;
31724;SDS011;18306;40.960;14.836;2023-09-19T10:23:17;16.58;;;4.63;;
31724;SDS011;18306;40.960;14.836;2023-09-19T10:25:53;14.35;;;4.72;;
31724;SDS011;18306;40.960;14.836;2023-09-19T10:28:21;14.93;;;6.20;;
31724;SDS011;18306;40.960;14.836;2023-09-19T10:30:49;15.15;;;5.20;;
31724;SDS011;18306;40.960;14.836;2023-09-19T10:33:20;13.70;;;4.35;;
31724;SDS011;18306;40.960;14.836;2023-09-19T10:35:49;20.83;;;5.28;;
31724;SDS011;18306;40.960;14.836;2023-09-19T10:38:35;9.45;;;3.88;;
31724;SDS011;18306;40.960;14.836;2023-09-19T10:41:07;20.35;;;4.75;;
31724;SDS011;18306;40.960;14.836;2023-09-19T10:43:36;17.38;;;4.60;;
31724;SDS011;18306;40.960;14.836;2023-09-19T10:46:09;15.40;;;3.97;;
31724;SDS011;18306;40.960;14.836;2023-09-19T10:48:38;12.77;;;3.95;;
31724;SDS011;18306;40.960;14.836;2023-09-19T10:51:08;10.48;;;3.58;;
31724;SDS011;18306;40.960;14.836;2023-09-19T10:53:48;14.07;;;4.47;;
31724;SDS011;18306;40.960;14.836;2023-09-19T10:56:42;14.70;;;4.38;;
31724;SDS011;18306;40.960;14.836;2023-09-19T10:59:17;8.90;;;3.65;;
31724;SDS011;18306;40.960;14.836;2023-09-19T11:04:27;16.58;;;4.85;;
31724;SDS011;18306;40.960;14.836;2023-09-19T11:07:06;13.73;;;3.85;;
31724;SDS011;18306;40.960;14.836;2023-09-19T11:09:44;20.75;;;4.90;;
31724;SDS011;18306;40.960;14.836;2023-09-19T11:12:58;12.18;;;4.53;;
31724;SDS011;18306;40.960;14.836;2023-09-19T11:15:07;19.55;;;4.30;;
31724;SDS011;18306;40.960;14.836;2023-09-19T11:17:40;17.60;;;4.75;;
31724;SDS011;18306;40.960;14.836;2023-09-19T11:33:19;12.35;;;3.80;;
31724;SDS011;18306;40.960;14.836;2023-09-19T11:36:12;19.90;;;3.90;;
31724;SDS011;18306;40.960;14.836;2023-09-19T11:43:52;12.07;;;3.58;;
31724;SDS011;18306;40.960;14.836;2023-09-19T11:46:33;7.07;;;3.53;;
31724;SDS011;18306;40.960;14.836;2023-09-19T11:49:07;9.07;;;3.80;;
31724;SDS011;18306;40.960;14.836;2023-09-19T11:51:51;7.30;;;3.40;;
31724;SDS011;18306;40.960;14.836;2023-09-19T11:54:20;9.35;;;3.70;;
31724;SDS011;18306;40.960;14.836;2023-09-19T11:56:58;7.75;;;3.13;;
31724;SDS011;18306;40.960;14.836;2023-09-19T11:59:30;10.10;;;2.85;;
31724;SDS011;18306;40.960;14.836;2023-09-19T12:01:58;16.05;;;4.43;;
31724;SDS011;18306;40.960;14.836;2023-09-19T12:04:35;4.50;;;2.90;;
31724;SDS011;18306;40.960;14.836;2023-09-19T12:07:08;12.05;;;3.70;;
31724;SDS011;18306;40.960;14.836;2023-09-19T12:09:43;7.60;;;3.47;;
31724;SDS011;18306;40.960;14.836;2023-09-19T12:12:23;10.20;;;3.70;;
31724;SDS011;18306;40.960;14.836;2023-09-19T12:14:55;13.38;;;3.33;;
31724;SDS011;18306;40.960;14.836;2023-09-19T12:17:43;11.25;;;3.38;;
31724;SDS011;18306;40.960;14.836;2023-09-19T12:20:10;23.35;;;4.13;;
31724;SDS011;18306;40.960;14.836;2023-09-19T12:22:42;7.55;;;3.17;;
31724;SDS011;18306;40.960;14.836;2023-09-19T12:25:14;13.77;;;3.30;;
31724;SDS011;18306;40.960;14.836;2023-09-19T12:28:08;11.82;;;3.25;;
31724;SDS011;18306;40.960;14.836;2023-09-19T12:30:36;11.50;;;3.40;;
31724;SDS011;18306;40.960;14.836;2023-09-19T12:33:04;15.73;;;4.22;;
31724;SDS011;18306;40.960;14.836;2023-09-19T12:35:31;13.63;;;4.32;;
31724;SDS011;18306;40.960;14.836;2023-09-19T12:38:02;11.57;;;3.65;;
31724;SDS011;18306;40.960;14.836;2023-09-19T12:40:29;13.35;;;3.13;;
31724;SDS011;18306;40.960;14.836;2023-09-19T12:42:59;17.27;;;4.32;;
31724;SDS011;18306;40.960;14.836;2023-09-19T12:45:32;11.68;;;3.58;;
31724;SDS011;18306;40.960;14.836;2023-09-19T12:48:20;9.75;;;3.50;;
31724;SDS011;18306;40.960;14.836;2023-09-19T12:53:38;11.32;;;2.83;;
31724;SDS011;18306;40.960;14.836;2023-09-19T12:56:12;15.63;;;3.50;;
31724;SDS011;18306;40.960;14.836;2023-09-19T12:58:54;7.47;;;3.30;;
31724;SDS011;18306;40.960;14.836;2023-09-19T13:01:23;13.30;;;3.45;;
31724;SDS011;18306;40.960;14.836;2023-09-19T13:04:13;13.02;;;3.75;;
31724;SDS011;18306;40.960;14.836;2023-09-19T13:06:48;14.57;;;4.45;;
31724;SDS011;18306;40.960;14.836;2023-09-19T13:09:17;15.63;;;4.35;;
31724;SDS011;18306;40.960;14.836;2023-09-19T13:11:46;11.82;;;4.03;;
31724;SDS011;18306;40.960;14.836;2023-09-19T13:14:17;15.27;;;3.95;;
31724;SDS011;18306;40.960;14.836;2023-09-19T13:16:56;16.33;;;4.25;;
31724;SDS011;18306;40.960;14.836;2023-09-19T13:25:21;8.25;;;3.22;;
31724;SDS011;18306;40.960;14.836;2023-09-19T13:27:49;7.32;;;3.60;;
31724;SDS011;18306;40.960;14.836;2023-09-19T13:30:25;14.48;;;4.45;;
31724;SDS011;18306;40.960;14.836;2023-09-19T13:33:11;8.77;;;3.40;;
31724;SDS011;18306;40.960;14.836;2023-09-19T13:35:47;14.63;;;3.78;;
31724;SDS011;18306;40.960;14.836;2023-09-19T13:38:14;19.25;;;3.88;;
31724;SDS011;18306;40.960;14.836;2023-09-19T13:40:44;22.85;;;4.25;;
31724;SDS011;18306;40.960;14.836;2023-09-19T13:43:12;12.45;;;4.05;;
31724;SDS011;18306;40.960;14.836;2023-09-19T13:45:40;12.65;;;3.65;;
31724;SDS011;18306;40.960;14.836;2023-09-19T13:48:10;13.35;;;3.65;;
31724;SDS011;18306;40.960;14.836;2023-09-19T13:50:37;22.77;;;3.53;;
31724;SDS011;18306;40.960;14.836;2023-09-19T13:53:08;13.57;;;4.32;;
31724;SDS011;18306;40.960;14.836;2023-09-19T13:55:35;7.18;;;3.35;;
31724;SDS011;18306;40.960;14.836;2023-09-19T13:58:03;42.72;;;4.70;;
31724;SDS011;18306;40.960;14.836;2023-09-19T14:00:32;9.90;;;3.05;;
31724;SDS011;18306;40.960;14.836;2023-09-19T14:03:02;11.30;;;3.38;;
31724;SDS011;18306;40.960;14.836;2023-09-19T14:05:30;17.90;;;3.53;;
31724;SDS011;18306;40.960;14.836;2023-09-19T14:07:58;13.05;;;3.47;;
31724;SDS011;18306;40.960;14.836;2023-09-19T14:10:30;11.95;;;2.97;;
31724;SDS011;18306;40.960;14.836;2023-09-19T14:12:57;21.05;;;4.60;;
31724;SDS011;18306;40.960;14.836;2023-09-19T14:15:26;7.03;;;2.75;;
31724;SDS011;18306;40.960;14.836;2023-09-19T14:17:59;10.93;;;3.53;;
31724;SDS011;18306;40.960;14.836;2023-09-19T14:20:27;7.70;;;2.92;;
31724;SDS011;18306;40.960;14.836;2023-09-19T14:22:56;13.23;;;3.30;;
31724;SDS011;18306;40.960;14.836;2023-09-19T14:25:25;6.93;;;2.92;;
31724;SDS011;18306;40.960;14.836;2023-09-19T14:27:52;10.95;;;3.42;;
31724;SDS011;18306;40.960;14.836;2023-09-19T14:30:19;8.98;;;3.35;;
31724;SDS011;18306;40.960;14.836;2023-09-19T14:32:48;20.73;;;3.78;;
31724;SDS011;18306;40.960;14.836;2023-09-19T14:35:15;17.70;;;4.07;;
31724;SDS011;18306;40.960;14.836;2023-09-19T14:37:42;13.15;;;3.85;;
31724;SDS011;18306;40.960;14.836;2023-09-19T14:40:11;7.03;;;2.97;;
31724;SDS011;18306;40.960;14.836;2023-09-19T14:42:43;13.15;;;3.85;;
31724;SDS011;18306;40.960;14.836;2023-09-19T14:45:12;13.35;;;3.67;;
31724;SDS011;18306;40.960;14.836;2023-09-19T14:47:47;16.23;;;4.30;;
31724;SDS011;18306;40.960;14.836;2023-09-19T14:50:14;6.50;;;2.53;;
31724;SDS011;18306;40.960;14.836;2023-09-19T14:52:50;19.58;;;4.35;;
31724;SDS011;18306;40.960;14.836;2023-09-19T14:55:18;21.42;;;3.63;;
31724;SDS011;18306;40.960;14.836;2023-09-19T14:57:52;13.75;;;3.38;;
31724;SDS011;18306;40.960;14.836;2023-09-19T15:00:21;16.50;;;4.28;;
31724;SDS011;18306;40.960;14.836;2023-09-19T15:02:50;12.32;;;3.75;;
31724;SDS011;18306;40.960;14.836;2023-09-19T15:05:17;14.35;;;3.67;;
31724;SDS011;18306;40.960;14.836;2023-09-19T15:07:44;10.20;;;3.17;;
31724;SDS011;18306;40.960;14.836;2023-09-19T15:10:12;10.15;;;3.20;;
31724;SDS011;18306;40.960;14.836;2023-09-19T15:12:39;15.35;;;3.42;;
31724;SDS011;18306;40.960;14.836;2023-09-19T15:15:06;13.68;;;4.50;;
31724;SDS011;18306;40.960;14.836;2023-09-19T15:17:35;15.90;;;3.70;;
31724;SDS011;18306;40.960;14.836;2023-09-19T15:20:03;10.07;;;3.55;;
31724;SDS011;18306;40.960;14.836;2023-09-19T15:22:33;9.35;;;3.53;;
31724;SDS011;18306;40.960;14.836;2023-09-19T15:25:04;12.50;;;4.82;;
31724;SDS011;18306;40.960;14.836;2023-09-19T15:27:34;8.05;;;3.78;;
31724;SDS011;18306;40.960;14.836;2023-09-19T15:30:03;11.48;;;3.88;;
31724;SDS011;18306;40.960;14.836;2023-09-19T15:32:31;11.23;;;4.53;;
31724;SDS011;18306;40.960;14.836;2023-09-19T15:34:58;19.20;;;4.78;;
31724;SDS011;18306;40.960;14.836;2023-09-19T15:37:27;12.80;;;4.05;;
31724;SDS011;18306;40.960;14.836;2023-09-19T15:39:54;10.88;;;4.53;;
31724;SDS011;18306;40.960;14.836;2023-09-19T15:42:21;16.00;;;3.80;;